Time;durP1;ratioP1;P1;durP2;ratioP2;P2;SDS_P1;SDS_P2;PMS_P1;PMS_P2;Temp;Humidity;BMP_temperature;BMP_pressure;BME280_temperature;BME280_humidity;BME280_pressure;Samples;Min_cycle;Max_cycle;Signal;HPM_P1;HPM_P2
2024/03/15 02:08:34;;;;;;;0.00;0.00;;;;;;;;;;4920430;29;20423;-94
2024/03/15 02:11:03;;;;;;;0.00;0.00;;;;;;;;;;4916446;29;20488;-94
2024/03/15 02:13:30;;;;;;;0.00;0.00;;;;;;;;;;4920397;29;20043;-92
2024/03/15 02:16:11;;;;;;;0.00;0.00;;;;;;;;;;4948515;29;20091;-94
2024/03/15 02:18:42;;;;;;;0.00;0.00;;;;;;;;;;4913557;29;20612;-93
2024/03/15 18:49:17;;;;;;;0.00;0.00;;;12.20;99.90;;;;;;652473;23;20296;-86
2024/03/15 18:51:43;;;;;;;0.00;0.00;;;;;;;;;;4944055;29;20059;-87
2024/03/15 18:54:10;;;;;;;0.00;0.00;;;;;;;;;;4949612;29;20043;-87
2024/03/15 18:56:35;;;;;;;0.00;0.00;;;;;;;;;;4951783;29;20008;-87
2024/03/15 18:59:01;;;;;;;0.00;0.00;;;;;;;;;;4957713;29;20034;-89
2024/03/15 19:01:28;;;;;;;0.00;0.00;;;;;;;;;;4948152;29;20008;-86
2024/03/15 19:03:54;;;;;;;0.00;0.00;;;;;;;;;;4949024;29;20008;-88
2024/03/15 19:06:20;;;;;;;0.00;0.00;;;;;;;;;;4949448;29;20079;-88
2024/03/15 19:08:49;;;;;;;0.00;0.00;;;;;;;;;;4951446;29;20008;-88
2024/03/15 19:11:16;;;;;;;0.00;0.00;;;12.30;99.90;;;;;;4952540;29;20004;-89
2024/03/15 19:13:42;;;;;;;0.00;0.00;;;;;;;;;;4956928;29;20076;-89
2024/03/15 19:16:09;;;;;;;0.00;0.00;;;;;;;;;;4949168;29;20054;-86
2024/03/15 19:18:35;;;;;;;0.00;0.00;;;;;;;;;;4960867;29;20043;-88
2024/03/15 19:21:02;;;;;;;0.00;0.00;;;;;;;;;;4951719;29;20000;-88
2024/03/15 19:23:28;;;;;;;0.00;0.00;;;;;;;;;;4957153;29;20028;-87
2024/03/15 19:25:54;;;;;;;0.00;0.00;;;;;;;;;;4949291;29;20019;-87
2024/03/15 19:28:20;;;;;;;0.00;0.00;;;;;;;;;;4958441;29;20015;-88
2024/03/15 19:30:49;;;;;;;0.00;0.00;;;12.10;99.90;;;;;;4951334;29;20008;-88
2024/03/15 19:33:15;;;;;;;0.00;0.00;;;;;;;;;;4951561;29;20041;-87
2024/03/15 19:35:43;;;;;;;0.00;0.00;;;;;;;;;;4947396;29;20262;-87
2024/03/15 19:38:09;;;;;;;0.00;0.00;;;;;;;;;;4950375;29;20046;-87
2024/03/15 19:40:35;;;;;;;0.00;0.00;;;;;;;;;;4948681;29;20000;-88
2024/03/15 19:43:01;;;;;;;0.00;0.00;;;;;;;;;;4952467;29;20013;-89
2024/03/15 19:45:27;;;;;;;0.00;0.00;;;;;;;;;;4957330;29;19996;-89
2024/03/15 19:47:53;;;;;;;0.00;0.00;;;;;;;;;;4941769;29;20080;-88
2024/03/15 19:50:19;;;;;;;0.00;0.00;;;;;;;;;;4948420;29;20028;-88
2024/03/15 19:52:45;;;;;;;0.00;0.00;;;;;;;;;;4950142;29;20012;-89
2024/03/15 19:55:11;;;;;;;0.00;0.00;;;;;;;;;;4951062;29;20012;-88
2024/03/15 19:57:38;;;;;;;0.00;0.00;;;;;;;;;;4949714;29;20024;-87
2024/03/15 20:00:10;;;;;;;0.00;0.00;;;;;;;;;;4957393;29;20010;-88
2024/03/15 20:02:37;;;;;;;0.00;0.00;;;;;;;;;;4949401;29;20000;-89
2024/03/15 20:05:03;;;;;;;0.00;0.00;;;;;;;;;;4945351;29;20075;-88
2024/03/15 20:07:29;;;;;;;0.00;0.00;;;;;;;;;;4952655;29;20020;-88
2024/03/15 20:09:55;;;;;;;0.00;0.00;;;;;;;;;;4954479;29;20022;-88
2024/03/15 20:12:21;;;;;;;0.00;0.00;;;;;;;;;;4956588;29;20042;-86
2024/03/15 20:14:49;;;;;;;0.00;0.00;;;;;;;;;;4950016;29;20020;-89
2024/03/15 20:17:15;;;;;;;0.00;0.00;;;;;;;;;;4951744;29;20023;-87
2024/03/15 20:19:41;;;;;;;0.00;0.00;;;;;;;;;;4952788;29;20079;-88
2024/03/15 20:22:07;;;;;;;0.00;0.00;;;;;;;;;;4949994;29;20008;-89
2024/03/15 20:28:09;;;;;;;0.00;0.00;;;;;;;;;;4954863;28;20060;-88
2024/03/15 23:07:28;;;;;;;0.00;0.00;;;;;;;;;;4919410;29;20364;-92
2024/03/15 23:09:54;;;;;;;0.00;0.00;;;;;;;;;;4919719;29;20028;-93
2024/03/15 23:12:19;;;;;;;0.00;0.00;;;;;;;;;;4920388;29;20020;-93
2024/03/15 23:14:46;;;;;;;0.00;0.00;;;;;;;;;;4916804;29;20029;-92
2024/03/15 23:17:12;;;;;;;0.00;0.00;;;11.20;99.90;;;;;;4913726;29;20088;-91
2024/03/15 23:19:38;;;;;;;0.00;0.00;;;;;;;;;;4919914;29;20028;-92
2024/03/15 23:22:04;;;;;;;0.00;0.00;;;;;;;;;;4918510;29;20148;-92
2024/03/15 23:24:30;;;;;;;0.00;0.00;;;;;;;;;;4913909;29;20033;-93
2024/03/15 23:26:56;;;;;;;0.00;0.00;;;;;;;;;;4911986;29;20034;-92
2024/03/15 23:29:22;;;;;;;0.00;0.00;;;;;;;;;;4911499;29;20032;-92
2024/03/15 23:31:48;;;;;;;0.00;0.00;;;;;;;;;;4913094;29;20095;-93
2024/03/15 23:34:14;;;;;;;0.00;0.00;;;;;;;;;;4912177;29;20048;-92
2024/03/15 23:36:40;;;;;;;0.00;0.00;;;;;;;;;;4914810;29;20121;-93
2024/03/15 23:39:11;;;;;;;0.00;0.00;;;;;;;;;;4911198;29;20513;-93
2024/03/15 23:41:37;;;;;;;0.00;0.00;;;;;;;;;;4915248;29;20037;-92
2024/03/15 23:44:04;;;;;;;0.00;0.00;;;;;;;;;;4913897;29;20032;-93
2024/03/15 23:46:30;;;;;;;0.00;0.00;;;;;;;;;;4913089;29;20384;-93
2024/03/15 23:48:57;;;;;;;0.00;0.00;;;;;;;;;;4917462;29;20035;-92
2024/03/15 23:51:26;;;;;;;0.08;0.08;;;;;;;;;;4921886;29;20036;-93
2024/03/15 23:53:52;;;;;;;0.00;0.00;;;;;;;;;;4919292;29;20033;-92
2024/03/15 23:56:18;;;;;;;0.00;0.00;;;;;;;;;;4920533;29;20060;-92
2024/03/15 23:58:44;;;;;;;0.00;0.00;;;;;;;;;;4914042;29;20029;-92
